Main page
METAR-TAF:

METAR-TAF

Airports :

Athens International Airport

Athens, Greece

latitude: 37-56N, longitude: 023-56E, elevation: 94 m

Current weather observation

The report was made 30 minutes ago, at 19:20 UTC
Wind 9 kt from the North
Temperature 15°C
Humidity 63%
Pressure 1022 hPa
Visibility 10 km or more
Few clouds at a height of 3000 ft

METAR: LGAV 281920Z 36009KT 9999 FEW030 15/08 Q1022 NOSIG

Time: 22:50 (19:50 UTC)

Forecast

The report was made 2 hours and 50 minutes ago, at 17:00 UTC
Forecast valid from 28 at 18 UTC to 29 at 18 UTC
Wind 22 kt from the North/Northeast
Visibility 10 km or more
Few clouds at a height of 1800 ft
Scattered clouds at a height of 2500 ft
Temporary
from 28 at 18 UTC to 29 at 18 UTC
Wind 22 kt from the North/Northeast with gusts up to 32 kt
Few clouds at a height of 1800 ft
Broken clouds at a height of 2500 ft

TAF: LGAV 281700Z 2818/2918 03022KT 9999 FEW018 SCT025 TEMPO 2818/2918 03022G32KT FEW018 BKN025

Weather observations and forecasts of more than 4000 airports (METAR and TAF reports).

The available stations are represented by yellow and red dots on the map.

Hover mouse over dot to see the name of the station.

Then click to see weather observations and forecasts.

To change the map : click on the green buttons with a black cross to zoom in, on the green button with a dash to zoom out, or on the green arrows for adjacent maps.


METAR-TAF: